Time;durP1;ratioP1;P1;durP2;ratioP2;P2;SDS_P1;SDS_P2;PMS_P1;PMS_P2;Temp;Humidity;BMP_temperature;BMP_pressure;BME280_temperature;BME280_humidity;BME280_pressure;Samples;Min_cycle;Max_cycle;Signal;HPM_P1;HPM_P2
2024/02/19 00:01:15;;;;;;;;;;;;;;;;;;5065511;28;19912;-86
2024/02/19 00:03:40;;;;;;;;;;;;;;;;;;5068083;28;19940;-87
2024/02/19 00:06:06;;;;;;;;;;;;;;;;;;5066969;28;19962;-87
2024/02/19 00:08:32;;;;;;;;;;;;;;;;;;5068122;28;20020;-89
2024/02/19 00:10:58;;;;;;;;;;;;;;;;;;5071839;28;19912;-89
2024/02/19 00:13:24;;;;;;;;;;;;;;;;;;5061656;28;19966;-87
2024/02/19 00:15:50;;;;;;;;;;;;;;;;;;5069019;28;19962;-86
2024/02/19 00:18:16;;;;;;;;;;;;;;;;;;5069406;28;19923;-87
2024/02/19 00:20:42;;;;;;;;;;;;;;;;;;5066727;28;19912;-87
2024/02/19 00:23:08;;;;;;;;;;;;;;;;;;5051210;28;20386;-88
2024/02/19 00:25:33;;;;;;;;;;;;;;;;;;5066012;28;19939;-88
2024/02/19 00:27:59;;;;;;;;;;;;;;;;;;5061800;28;19912;-88
2024/02/19 00:30:25;;;;;;;;;;;;;;;;;;5066791;28;19916;-88
2024/02/19 00:32:53;;;;;;;;;;;;;;;;;;5060193;28;20390;-86
2024/02/19 00:35:20;;;;;;;;;;;;;;;;;;5057613;28;20437;-86
2024/02/19 00:37:46;;;;;;;;;;;;;;;;;;5067607;28;19944;-86
2024/02/19 00:40:12;;;;;;;;;;;;;;;;;;5070153;28;19951;-85
2024/02/19 00:42:38;;;;;;;;;;;;;;;;;;5065591;28;19919;-87
2024/02/19 00:45:04;;;;;;;;;;;;;;;;;;5069598;28;20279;-87
2024/02/19 00:47:30;;;;;;;;;;;;;;;;;;5061376;28;20391;-85
2024/02/19 00:49:56;;;;;;;;;;;;;;;;;;5068323;28;20385;-87
2024/02/19 00:52:22;;;;;;;;;;;;;;;;;;5064173;28;19959;-87
2024/02/19 00:54:47;;;;;;;;;;;;;;;;;;5067644;28;20504;-88
2024/02/19 00:57:13;;;;;;;;;;;;;;;;;;5066955;28;19920;-88
2024/02/19 00:59:39;;;;;;;;;;;;;;;;;;5066162;28;19916;-89
2024/02/19 01:02:05;;;;;;;;;;;;;;;;;;5071489;28;19912;-88
2024/02/19 01:04:31;;;;;;;;;;;;;;;;;;5075468;28;19962;-88
2024/02/19 01:07:01;;;;;;;;;;;;;;;;;;5066503;28;19917;-88
2024/02/19 01:09:27;;;;;;;;;;;;;;;;;;5057240;28;19919;-86
2024/02/19 01:11:53;;;;;;;;;;;;;;;;;;5076702;28;19920;-88
2024/02/19 01:14:19;;;;;;;;;;;;;;;;;;5063203;28;19917;-87
2024/02/19 01:16:46;;;;;;;;;;;;;;;;;;5056600;28;19916;-87
2024/02/19 01:19:12;;;;;;;;;;;;;;;;;;5069752;28;19962;-86
2024/02/19 01:21:38;;;;;;;;;;;;;;;;;;5067194;28;20137;-86
2024/02/19 01:24:04;;;;;;;;;;;;;;;;;;5062296;28;20008;-86
2024/02/19 01:26:30;;;;;;;;;;;;;;;;;;5072630;28;19919;-88
2024/02/19 01:28:56;;;;;;;;;;;;;;;;;;5071717;28;19912;-87
2024/02/19 01:31:22;;;;;;;;;;;;;;;;;;5070575;28;19916;-87
2024/02/19 01:33:48;;;;;;;;;;;;;;;;;;5070886;28;20279;-87
2024/02/19 01:36:14;;;;;;;;;;;;;;;;;;5071444;28;19918;-88
2024/02/19 01:38:41;;;;;;;;;;;;;;;;;;5071530;28;19927;-88
2024/02/19 01:41:07;;;;;;;;;;;;;;;;;;5066462;28;19920;-88
2024/02/19 01:43:33;;;;;;;;;;;;;;;;;;5071306;28;19920;-87
2024/02/19 01:45:58;;;;;;;;;;;;;;;;;;5062459;28;19916;-87
2024/02/19 01:48:24;;;;;;;;;;;;;;;;;;5071025;28;19919;-88
2024/02/19 01:50:50;;;;;;;;;;;;;;;;;;5070874;28;19921;-87
2024/02/19 01:53:16;;;;;;;;;;;;;;;;;;5068737;28;20426;-86
2024/02/19 01:55:42;;;;;;;;;;;;;;;;;;5071969;28;19978;-88
2024/02/19 01:58:08;;;;;;;;;;;;;;;;;;5075448;28;19912;-87
2024/02/19 02:00:34;;;;;;;;;;;;;;;;;;5072105;28;20425;-86
2024/02/19 02:03:00;;;;;;;;;;;;;;;;;;5069797;28;20572;-88
2024/02/19 02:05:25;;;;;;;;;;;;;;;;;;5067325;28;19912;-88
2024/02/19 02:07:51;;;;;;;;;;;;;;;;;;5072559;28;19951;-89
2024/02/19 02:10:18;;;;;;;;;;;;;;;;;;5074654;28;19920;-87
2024/02/19 02:12:44;;;;;;;;;;;;;;;;;;5071798;28;19925;-88
2024/02/19 02:15:10;;;;;;;;;;;;;;;;;;5068533;28;19963;-87
2024/02/19 02:17:36;;;;;;;;;;;;;;;;;;5064756;28;19962;-86
2024/02/19 02:20:02;;;;;;;;;;;;;;;;;;5073993;28;19970;-88
2024/02/19 02:22:27;;;;;;;;;;;;;;;;;;5070443;28;19965;-87
2024/02/19 02:24:53;;;;;;;;;;;;;;;;;;5072069;28;19912;-87
2024/02/19 02:27:19;;;;;;;;;;;;;;;;;;5063385;28;20406;-85
2024/02/19 02:29:45;;;;;;;;;;;;;;;;;;5069931;28;19912;-86
2024/02/19 02:32:11;;;;;;;;;;;;;;;;;;5067808;28;20473;-86
2024/02/19 02:34:37;;;;;;;;;;;;;;;;;;5059893;28;20007;-86
2024/02/19 02:37:03;;;;;;;;;;;;;;;;;;5069417;28;19919;-87
2024/02/19 02:39:28;;;;;;;;;;;;;;;;;;5069956;28;19916;-87
2024/02/19 02:41:54;;;;;;;;;;;;;;;;;;5068280;28;19920;-86
2024/02/19 02:44:20;;;;;;;;;;;;;;;;;;5066304;28;20318;-88
2024/02/19 02:46:46;;;;;;;;;;;;;;;;;;5067907;28;19924;-88
2024/02/19 02:49:12;;;;;;;;;;;;;;;;;;5068430;28;19913;-86
2024/02/19 02:51:38;;;;;;;;;;;;;;;;;;5063659;28;19959;-86
2024/02/19 02:54:03;;;;;;;;;;;;;;;;;;5070410;28;19920;-88
2024/02/19 02:56:30;;;;;;;;;;;;;;;;;;5066104;28;19912;-87
2024/02/19 02:58:56;;;;;;;;;;;;;;;;;;5068391;28;19916;-89
2024/02/19 03:01:22;;;;;;;;;;;;;;;;;;5067175;28;19940;-87
2024/02/19 03:03:48;;;;;;;;;;;;;;;;;;5066362;28;19920;-86
2024/02/19 03:06:13;;;;;;;;;;;;;;;;;;5061501;28;20328;-88
2024/02/19 03:08:39;;;;;;;;;;;;;;;;;;5070948;28;20358;-87
2024/02/19 03:11:05;;;;;;;;;;;;;;;;;;5065973;28;19966;-87
2024/02/19 03:13:31;;;;;;;;;;;;;;;;;;5064481;28;19917;-86
2024/02/19 03:15:57;;;;;;;;;;;;;;;;;;5068075;28;20398;-88
2024/02/19 03:18:23;;;;;;;;;;;;;;;;;;5065892;28;19927;-87
2024/02/19 03:20:49;;;;;;;;;;;;;;;;;;5066712;28;19921;-87
2024/02/19 03:23:15;;;;;;;;;;;;;;;;;;5068246;28;19919;-88
2024/02/19 03:25:41;;;;;;;;;;;;;;;;;;5059921;28;20155;-87
2024/02/19 03:28:07;;;;;;;;;;;;;;;;;;5071051;28;19919;-89
2024/02/19 03:30:33;;;;;;;;;;;;;;;;;;5063612;28;19938;-88
2024/02/19 03:33:00;;;;;;;;;;;;;;;;;;5066925;28;19917;-89
2024/02/19 03:35:26;;;;;;;;;;;;;;;;;;5069007;28;19916;-89
2024/02/19 03:37:52;;;;;;;;;;;;;;;;;;5071401;28;20286;-89
2024/02/19 03:40:18;;;;;;;;;;;;;;;;;;5062086;28;19916;-88
2024/02/19 03:42:44;;;;;;;;;;;;;;;;;;5069973;28;19916;-89
2024/02/19 03:45:10;;;;;;;;;;;;;;;;;;5068966;28;20375;-89
2024/02/19 03:47:36;;;;;;;;;;;;;;;;;;5072290;28;19912;-88
2024/02/19 03:50:02;;;;;;;;;;;;;;;;;;5069630;28;20422;-88
2024/02/19 03:52:27;;;;;;;;;;;;;;;;;;5069298;28;19913;-90
2024/02/19 03:54:54;;;;;;;;;;;;;;;;;;5065365;28;19999;-89
2024/02/19 03:57:22;;;;;;;;;;;;;;;;;;5071746;28;19916;-88
2024/02/19 03:59:48;;;;;;;;;;;;;;;;;;5069287;28;19957;-88
2024/02/19 04:02:14;;;;;;;;;;;;;;;;;;5069107;28;19913;-89
2024/02/19 04:04:40;;;;;;;;;;;;;;;;;;5070450;28;19917;-89
2024/02/19 04:07:06;;;;;;;;;;;;;;;;;;5066072;28;20014;-89
2024/02/19 04:09:34;;;;;;;;;;;;;;;;;;5069554;28;19916;-88
2024/02/19 04:12:00;;;;;;;;;;;;;;;;;;5063678;28;19919;-88
2024/02/19 04:14:26;;;;;;;;;;;;;;;;;;5062342;28;19916;-88
2024/02/19 04:16:52;;;;;;;;;;;;;;;;;;5075228;28;19985;-88
2024/02/19 04:19:18;;;;;;;;;;;;;;;;;;5074526;28;20282;-89
2024/02/19 04:21:44;;;;;;;;;;;;;;;;;;5062740;28;19999;-88
2024/02/19 04:24:11;;;;;;;;;;;;;;;;;;5072184;28;19908;-88
2024/02/19 04:26:37;;;;;;;;;;;;;;;;;;5080544;28;19912;-88
2024/02/19 04:29:03;;;;;;;;;;;;;;;;;;5072681;28;20531;-88
2024/02/19 04:31:28;;;;;;;;;;;;;;;;;;5070008;28;19913;-88
2024/02/19 04:33:54;;;;;;;;;;;;;;;;;;5069546;28;19942;-89
2024/02/19 04:36:20;;;;;;;;;;;;;;;;;;5065907;28;19916;-89
2024/02/19 04:38:46;;;;;;;;;;;;;;;;;;5068612;28;19912;-87
2024/02/19 04:41:12;;;;;;;;;;;;;;;;;;5065783;28;20426;-88
2024/02/19 04:43:38;;;;;;;;;;;;;;;;;;5077568;28;19912;-89
2024/02/19 04:46:05;;;;;;;;;;;;;;;;;;5066232;28;19913;-87
2024/02/19 04:48:30;;;;;;;;;;;;;;;;;;5072954;28;19963;-89
2024/02/19 04:50:56;;;;;;;;;;;;;;;;;;5071741;28;20441;-88
2024/02/19 04:53:22;;;;;;;;;;;;;;;;;;5071865;28;19932;-89
2024/02/19 04:55:48;;;;;;;;;;;;;;;;;;5072799;28;19916;-87
2024/02/19 04:58:15;;;;;;;;;;;;;;;;;;5067848;28;19916;-87
2024/02/19 05:00:41;;;;;;;;;;;;;;;;;;5066898;28;20418;-87
2024/02/19 05:03:07;;;;;;;;;;;;;;;;;;5049475;28;19927;-87
2024/02/19 05:05:33;;;;;;;;;;;;;;;;;;5070275;28;19919;-87
2024/02/19 05:07:59;;;;;;;;;;;;;;;;;;5069163;28;19927;-85
2024/02/19 05:10:25;;;;;;;;;;;;;;;;;;5070087;28;19995;-88
2024/02/19 05:12:51;;;;;;;;;;;;;;;;;;5075853;28;20069;-88
2024/02/19 05:15:16;;;;;;;;;;;;;;;;;;5068863;28;19916;-87
2024/02/19 05:17:42;;;;;;;;;;;;;;;;;;5052671;28;19919;-89
2024/02/19 05:20:10;;;;;;;;;;;;;;;;;;5051090;28;19944;-88
2024/02/19 05:22:36;;;;;;;;;;;;;;;;;;5072746;28;20011;-85
2024/02/19 05:25:02;;;;;;;;;;;;;;;;;;5068836;28;20400;-84
2024/02/19 05:27:28;;;;;;;;;;;;;;;;;;5069920;28;20318;-84
2024/02/19 05:29:54;;;;;;;;;;;;;;;;;;5070955;28;20027;-84
2024/02/19 05:32:20;;;;;;;;;;;;;;;;;;5070754;28;20173;-84
2024/02/19 05:34:46;;;;;;;;;;;;;;;;;;5069407;28;19920;-83
2024/02/19 05:37:12;;;;;;;;;;;;;;;;;;5058589;28;19913;-81
2024/02/19 05:39:39;;;;;;;;;;;;;;;;;;5069083;28;19970;-84
2024/02/19 05:42:05;;;;;;;;;;;;;;;;;;5071581;28;19916;-84
2024/02/19 05:44:31;;;;;;;;;;;;;;;;;;5068783;28;20045;-83
2024/02/19 05:46:57;;;;;;;;;;;;;;;;;;5069116;28;19989;-84
2024/02/19 05:49:23;;;;;;;;;;;;;;;;;;5069898;28;19913;-83
2024/02/19 05:51:49;;;;;;;;;;;;;;;;;;5061132;28;19912;-84
2024/02/19 05:54:14;;;;;;;;;;;;;;;;;;5069500;28;20279;-82
2024/02/19 05:56:43;;;;;;;;;;;;;;;;;;5071306;28;20083;-83
2024/02/19 05:59:09;;;;;;;;;;;;;;;;;;5070957;28;19917;-86
2024/02/19 06:01:35;;;;;;;;;;;;;;;;;;5052255;28;19934;-85
2024/02/19 06:04:01;;;;;;;;;;;;;;;;;;5071080;28;20432;-87
2024/02/19 06:06:27;;;;;;;;;;;;;;;;;;5067554;28;20287;-85
2024/02/19 06:08:53;;;;;;;;;;;;;;;;;;5066067;28;19912;-85
2024/02/19 06:11:20;;;;;;;;;;;;;;;;;;5071048;28;19909;-84
2024/02/19 06:13:46;;;;;;;;;;;;;;;;;;5071180;28;19909;-85
2024/02/19 06:16:12;;;;;;;;;;;;;;;;;;5069318;28;20026;-88
2024/02/19 06:18:38;;;;;;;;;;;;;;;;;;5066906;28;19912;-87
2024/02/19 06:21:04;;;;;;;;;;;;;;;;;;5077857;28;19970;-87
2024/02/19 06:23:30;;;;;;;;;;;;;;;;;;5052323;28;19912;-89
2024/02/19 06:25:55;;;;;;;;;;;;;;;;;;5071147;28;19915;-85
2024/02/19 06:28:24;;;;;;;;;;;;;;;;;;5070400;28;20140;-86
2024/02/19 06:30:50;;;;;;;;;;;;;;;;;;5063847;28;19923;-86
2024/02/19 06:33:16;;;;;;;;;;;;;;;;;;5062834;28;19912;-86
2024/02/19 06:35:42;;;;;;;;;;;;;;;;;;5062760;28;19916;-87
2024/02/19 06:38:08;;;;;;;;;;;;;;;;;;5067147;28;19912;-87
2024/02/19 06:40:34;;;;;;;;;;;;;;;;;;5067270;28;20040;-86
2024/02/19 06:43:00;;;;;;;;;;;;;;;;;;5066857;28;20115;-88
2024/02/19 06:45:26;;;;;;;;;;;;;;;;;;5062077;28;19917;-86
2024/02/19 06:47:52;;;;;;;;;;;;;;;;;;5068796;28;19931;-86
2024/02/19 06:50:17;;;;;;;;;;;;;;;;;;5065784;28;20303;-86
2024/02/19 06:52:45;;;;;;;;;;;;;;;;;;5065636;28;20581;-87
2024/02/19 06:55:11;;;;;;;;;;;;;;;;;;5068011;28;20371;-87
2024/02/19 06:57:37;;;;;;;;;;;;;;;;;;5068589;28;19912;-87
2024/02/19 07:00:03;;;;;;;;;;;;;;;;;;5064654;28;19912;-87
2024/02/19 07:02:29;;;;;;;;;;;;;;;;;;5063701;28;20394;-87
2024/02/19 07:04:54;;;;;;;;;;;;;;;;;;5065826;28;19991;-87
2024/02/19 07:07:20;;;;;;;;;;;;;;;;;;5066866;28;19921;-86
2024/02/19 07:09:46;;;;;;;;;;;;;;;;;;5065945;28;20351;-87
2024/02/19 07:12:12;;;;;;;;;;;;;;;;;;5066723;28;19917;-86
2024/02/19 07:14:38;;;;;;;;;;;;;;;;;;5064679;28;19917;-86
2024/02/19 07:17:04;;;;;;;;;;;;;;;;;;5065871;28;19923;-87
2024/02/19 07:19:30;;;;;;;;;;;;;;;;;;5067400;28;20374;-87
2024/02/19 07:21:56;;;;;;;;;;;;;;;;;;5065110;28;20387;-86
2024/02/19 07:24:22;;;;;;;;;;;;;;;;;;5063835;28;20294;-88
2024/02/19 07:26:47;;;;;;;;;;;;;;;;;;5065812;28;19940;-86
2024/02/19 07:29:13;;;;;;;;;;;;;;;;;;5066454;28;20414;-87
2024/02/19 07:31:39;;;;;;;;;;;;;;;;;;5061726;28;20299;-87
2024/02/19 07:34:05;;;;;;;;;;;;;;;;;;5060095;28;19963;-87
2024/02/19 07:36:31;;;;;;;;;;;;;;;;;;5062517;28;19923;-86
2024/02/19 07:38:57;;;;;;;;;;;;;;;;;;5067052;28;19955;-86
2024/02/19 07:41:23;;;;;;;;;;;;;;;;;;5067392;28;19908;-89
2024/02/19 07:43:50;;;;;;;;;;;;;;;;;;5063849;28;19913;-87
2024/02/19 07:46:18;;;;;;;;;;;;;;;;;;5067606;28;19908;-85
2024/02/19 07:48:44;;;;;;;;;;;;;;;;;;5067153;28;20390;-88
2024/02/19 07:51:10;;;;;;;;;;;;;;;;;;5064492;28;19912;-85
2024/02/19 07:53:36;;;;;;;;;;;;;;;;;;5065204;28;20007;-84
2024/02/19 07:56:02;;;;;;;;;;;;;;;;;;5065260;28;20015;-85
2024/02/19 07:58:28;;;;;;;;;;;;;;;;;;5063197;28;19920;-86
2024/02/19 08:00:53;;;;;;;;;;;;;;;;;;5063146;28;19924;-84
2024/02/19 08:03:19;;;;;;;;;;;;;;;;;;5064746;28;19912;-87
2024/02/19 08:05:45;;;;;;;;;;;;;;;;;;5061073;28;19920;-85
2024/02/19 08:08:11;;;;;;;;;;;;;;;;;;5065814;28;20099;-86
2024/02/19 08:10:37;;;;;;;;;;;;;;;;;;5064334;28;19962;-84
2024/02/19 08:13:03;;;;;;;;;;;;;;;;;;5066739;28;20418;-85
2024/02/19 08:15:29;;;;;;;;;;;;;;;;;;5063247;28;19916;-86
2024/02/19 08:17:55;;;;;;;;;;;;;;;;;;5063254;28;20481;-84
2024/02/19 08:20:21;;;;;;;;;;;;;;;;;;5063007;28;19916;-86
2024/02/19 08:22:47;;;;;;;;;;;;;;;;;;5063238;28;19958;-86
2024/02/19 08:25:13;;;;;;;;;;;;;;;;;;5066719;28;19909;-85
2024/02/19 08:27:39;;;;;;;;;;;;;;;;;;5065531;28;19951;-87
2024/02/19 08:30:05;;;;;;;;;;;;;;;;;;5065455;28;20394;-83
2024/02/19 08:32:31;;;;;;;;;;;;;;;;;;5065530;28;20074;-85
2024/02/19 08:34:57;;;;;;;;;;;;;;;;;;5064892;28;20389;-86
2024/02/19 08:37:22;;;;;;;;;;;;;;;;;;5061058;28;20236;-87
2024/02/19 08:39:48;;;;;;;;;;;;;;;;;;5064676;28;20007;-85
2024/02/19 08:42:14;;;;;;;;;;;;;;;;;;5066443;28;19913;-82
2024/02/19 08:44:40;;;;;;;;;;;;;;;;;;5052450;28;19923;-84
2024/02/19 08:47:07;;;;;;;;;;;;;;;;;;5064605;28;20011;-84
2024/02/19 08:49:33;;;;;;;;;;;;;;;;;;5066810;28;19920;-85
2024/02/19 08:51:59;;;;;;;;;;;;;;;;;;5069006;28;19912;-85
2024/02/19 08:54:27;;;;;;;;;;;;;;;;;;5067719;28;19975;-88
2024/02/19 08:56:53;;;;;;;;;;;;;;;;;;5068003;28;19947;-88
2024/02/19 08:59:19;;;;;;;;;;;;;;;;;;5068773;28;19962;-89
2024/02/19 09:01:44;;;;;;;;;;;;;;;;;;5050903;28;19909;-87
2024/02/19 09:04:10;;;;;;;;;;;;;;;;;;5068585;28;19915;-86
2024/02/19 09:06:36;;;;;;;;;;;;;;;;;;5068154;28;20287;-87
2024/02/19 09:09:03;;;;;;;;;;;;;;;;;;5067153;28;19923;-86
2024/02/19 09:11:28;;;;;;;;;;;;;;;;;;5069240;28;19955;-88
2024/02/19 09:13:54;;;;;;;;;;;;;;;;;;5068614;28;19916;-88
2024/02/19 09:16:20;;;;;;;;;;;;;;;;;;5068115;28;20286;-87
2024/02/19 09:18:46;;;;;;;;;;;;;;;;;;5068158;28;19919;-87
2024/02/19 09:21:12;;;;;;;;;;;;;;;;;;5067367;28;19912;-86
2024/02/19 09:23:38;;;;;;;;;;;;;;;;;;5066859;28;19920;-85
2024/02/19 09:26:03;;;;;;;;;;;;;;;;;;5067827;28;19912;-85
2024/02/19 09:28:29;;;;;;;;;;;;;;;;;;5171136;22;20009;-84
2024/02/19 09:30:55;;;;;;;;;;;;;;;;;;5065408;28;19909;-85
2024/02/19 09:33:21;;;;;;;;;;;;;;;;;;5067659;28;19913;-85
2024/02/19 09:35:50;;;;;;;;;;;;;;;;;;5051121;28;19955;-86
2024/02/19 09:38:15;;;;;;;;;;;;;;;;;;5050356;28;20380;-82
2024/02/19 09:40:42;;;;;;;;;;;;;;;;;;5048954;28;19948;-82
2024/02/19 09:43:08;;;;;;;;;;;;;;;;;;5050940;28;19982;-83
2024/02/19 09:45:36;;;;;;;;;;;;;;;;;;5053878;28;19908;-84
2024/02/19 09:48:02;;;;;;;;;;;;;;;;;;5070975;28;19916;-82
2024/02/19 09:50:28;;;;;;;;;;;;;;;;;;5049009;28;19920;-83
2024/02/19 09:52:54;;;;;;;;;;;;;;;;;;5050660;28;20125;-84
2024/02/19 09:55:20;;;;;;;;;;;;;;;;;;5050301;28;20379;-84
2024/02/19 09:57:46;;;;;;;;;;;;;;;;;;5050921;28;19909;-84
2024/02/19 10:00:12;;;;;;;;;;;;;;;;;;5048665;28;19932;-84
2024/02/19 10:02:38;;;;;;;;;;;;;;;;;;5051102;28;19912;-83
2024/02/19 10:05:07;;;;;;;;;;;;;;;;;;5050623;28;20539;-82
2024/02/19 10:07:33;;;;;;;;;;;;;;;;;;5050514;28;19908;-84
2024/02/19 10:09:58;;;;;;;;;;;;;;;;;;5049873;28;19936;-82
2024/02/19 10:12:24;;;;;;;;;;;;;;;;;;5050793;28;19915;-83
2024/02/19 10:14:51;;;;;;;;;;;;;;;;;;5050109;28;19928;-83
2024/02/19 10:17:17;;;;;;;;;;;;;;;;;;5049879;28;19916;-84
2024/02/19 10:19:42;;;;;;;;;;;;;;;;;;5048750;28;19913;-82
2024/02/19 10:22:09;;;;;;;;;;;;;;;;;;5047943;28;19920;-83
2024/02/19 10:24:34;;;;;;;;;;;;;;;;;;5049018;28;20005;-82
2024/02/19 10:27:00;;;;;;;;;;;;;;;;;;5050361;28;20467;-83
2024/02/19 10:29:26;;;;;;;;;;;;;;;;;;5048505;28;20423;-83
2024/02/19 10:31:52;;;;;;;;;;;;;;;;;;5049586;28;20352;-82
2024/02/19 10:34:18;;;;;;;;;;;;;;;;;;5050229;28;19963;-83
2024/02/19 10:36:44;;;;;;;;;;;;;;;;;;5049987;28;19908;-82
2024/02/19 10:39:10;;;;;;;;;;;;;;;;;;5047318;28;20149;-83
2024/02/19 10:41:36;;;;;;;;;;;;;;;;;;5050122;28;19962;-85
2024/02/19 10:44:02;;;;;;;;;;;;;;;;;;5031938;28;20393;-83
2024/02/19 10:46:28;;;;;;;;;;;;;;;;;;5049380;28;19913;-83
2024/02/19 10:48:54;;;;;;;;;;;;;;;;;;5049773;28;19966;-83
2024/02/19 10:51:20;;;;;;;;;;;;;;;;;;5049862;28;20364;-84
2024/02/19 10:53:46;;;;;;;;;;;;;;;;;;5048990;28;19920;-83
2024/02/19 10:56:12;;;;;;;;;;;;;;;;;;5049779;28;19916;-83
2024/02/19 10:58:37;;;;;;;;;;;;;;;;;;5047581;28;19913;-84
2024/02/19 11:01:03;;;;;;;;;;;;;;;;;;5049241;28;19908;-84
2024/02/19 11:03:30;;;;;;;;;;;;;;;;;;5049071;28;20007;-83
2024/02/19 11:05:56;;;;;;;;;;;;;;;;;;5049655;28;20287;-84
2024/02/19 11:08:22;;;;;;;;;;;;;;;;;;5048582;28;19909;-82
2024/02/19 11:10:48;;;;;;;;;;;;;;;;;;5049026;28;20385;-83
2024/02/19 11:13:26;;;;;;;;;;;;;;;;;;5066055;28;19912;-83
2024/02/19 11:15:53;;;;;;;;;;;;;;;;;;5049041;28;19917;-83
2024/02/19 11:18:19;;;;;;;;;;;;;;;;;;5049420;28;19909;-83
2024/02/19 11:20:44;;;;;;;;;;;;;;;;;;5041605;28;19916;-84
2024/02/19 11:23:10;;;;;;;;;;;;;;;;;;5046937;28;19916;-82
2024/02/19 11:25:36;;;;;;;;;;;;;;;;;;5031439;28;20007;-83
2024/02/19 11:28:02;;;;;;;;;;;;;;;;;;5048781;28;19921;-83
2024/02/19 11:30:30;;;;;;;;;;;;;;;;;;5049023;28;19913;-82
2024/02/19 11:32:56;;;;;;;;;;;;;;;;;;5041010;28;19974;-83
2024/02/19 11:35:21;;;;;;;;;;;;;;;;;;5049132;28;19913;-82
2024/02/19 11:37:49;;;;;;;;;;;;;;;;;;5063691;28;21140;-82
2024/02/19 11:40:15;;;;;;;;;;;;;;;;;;5048647;28;19912;-82
2024/02/19 11:42:41;;;;;;;;;;;;;;;;;;5049071;28;20004;-83
2024/02/19 11:45:06;;;;;;;;;;;;;;;;;;5048634;28;19971;-83
2024/02/19 11:47:32;;;;;;;;;;;;;;;;;;5053618;28;19916;-83
2024/02/19 11:49:58;;;;;;;;;;;;;;;;;;5068126;28;19963;-83
2024/02/19 11:52:24;;;;;;;;;;;;;;;;;;5068711;28;19962;-83
2024/02/19 11:54:50;;;;;;;;;;;;;;;;;;5049689;28;20381;-82
2024/02/19 11:57:17;;;;;;;;;;;;;;;;;;5048737;28;19939;-82
2024/02/19 11:59:43;;;;;;;;;;;;;;;;;;5048596;28;19991;-82
2024/02/19 12:02:09;;;;;;;;;;;;;;;;;;5048407;28;20008;-82
2024/02/19 12:04:35;;;;;;;;;;;;;;;;;;5047757;28;19913;-82
2024/02/19 12:07:01;;;;;;;;;;;;;;;;;;5048583;28;20319;-83
2024/02/19 12:09:27;;;;;;;;;;;;;;;;;;5026088;28;19948;-82
2024/02/19 12:11:53;;;;;;;;;;;;;;;;;;5046178;28;19913;-82
2024/02/19 12:14:20;;;;;;;;;;;;;;;;;;5048415;28;19917;-82
2024/02/19 12:16:45;;;;;;;;;;;;;;;;;;5048307;28;20366;-82
2024/02/19 12:19:11;;;;;;;;;;;;;;;;;;5042349;28;19974;-83
2024/02/19 12:21:37;;;;;;;;;;;;;;;;;;5048662;28;20323;-83
2024/02/19 12:24:03;;;;;;;;;;;;;;;;;;5052380;28;20276;-81
2024/02/19 12:26:29;;;;;;;;;;;;;;;;;;5048462;28;20406;-83
2024/02/19 12:28:55;;;;;;;;;;;;;;;;;;5046203;28;20303;-83
2024/02/19 12:31:21;;;;;;;;;;;;;;;;;;5046765;28;19917;-83
2024/02/19 12:33:47;;;;;;;;;;;;;;;;;;5045791;28;19916;-82
2024/02/19 12:36:13;;;;;;;;;;;;;;;;;;5048202;28;19908;-83
2024/02/19 12:38:42;;;;;;;;;;;;;;;;;;5047692;28;19919;-83
2024/02/19 12:41:08;;;;;;;;;;;;;;;;;;5047241;28;20008;-83
2024/02/19 12:43:34;;;;;;;;;;;;;;;;;;5048129;28;19908;-83
2024/02/19 12:46:00;;;;;;;;;;;;;;;;;;5048037;28;19913;-83
2024/02/19 12:48:26;;;;;;;;;;;;;;;;;;5047693;28;20394;-83
2024/02/19 12:50:51;;;;;;;;;;;;;;;;;;5047084;28;19913;-82
2024/02/19 12:53:18;;;;;;;;;;;;;;;;;;5047643;28;19913;-83
2024/02/19 12:55:44;;;;;;;;;;;;;;;;;;5043883;28;19920;-83
2024/02/19 12:58:11;;;;;;;;;;;;;;;;;;5047582;28;19959;-83
2024/02/19 13:00:41;;;;;;;;;;;;;;;;;;5041942;28;19959;-82
2024/02/19 13:03:07;;;;;;;;;;;;;;;;;;5045238;28;19924;-83
2024/02/19 13:05:33;;;;;;;;;;;;;;;;;;5032349;28;19962;-82
2024/02/19 13:07:59;;;;;;;;;;;;;;;;;;5060224;28;19917;-83
2024/02/19 13:10:25;;;;;;;;;;;;;;;;;;5057611;28;19981;-82
2024/02/19 13:12:51;;;;;;;;;;;;;;;;;;5050740;28;19924;-82
2024/02/19 13:15:17;;;;;;;;;;;;;;;;;;5049790;28;19975;-83
2024/02/19 13:17:44;;;;;;;;;;;;;;;;;;5032674;28;20364;-82
2024/02/19 13:20:12;;;;;;;;;;;;;;;;;;5052156;28;19917;-83
2024/02/19 13:22:38;;;;;;;;;;;;;;;;;;5032536;28;19982;-83
2024/02/19 13:25:06;;;;;;;;;;;;;;;;;;5050171;28;20457;-82
2024/02/19 13:27:31;;;;;;;;;;;;;;;;;;5050856;28;20011;-83
2024/02/19 13:29:57;;;;;;;;;;;;;;;;;;5033088;28;20027;-83
2024/02/19 13:32:23;;;;;;;;;;;;;;;;;;5050363;28;19913;-83
2024/02/19 13:34:49;;;;;;;;;;;;;;;;;;5043852;28;19917;-83
2024/02/19 13:37:18;;;;;;;;;;;;;;;;;;5054454;28;20287;-83
2024/02/19 13:39:43;;;;;;;;;;;;;;;;;;5049633;28;19912;-83
2024/02/19 13:42:09;;;;;;;;;;;;;;;;;;5048396;28;20726;-83
2024/02/19 13:44:35;;;;;;;;;;;;;;;;;;5031350;28;19920;-83
2024/02/19 13:47:02;;;;;;;;;;;;;;;;;;5039018;28;19940;-83
2024/02/19 13:49:27;;;;;;;;;;;;;;;;;;5054202;28;19952;-83
2024/02/19 13:51:53;;;;;;;;;;;;;;;;;;5030190;28;19998;-83
2024/02/19 13:54:19;;;;;;;;;;;;;;;;;;5050609;28;20312;-83
2024/02/19 13:56:45;;;;;;;;;;;;;;;;;;5049583;28;19921;-83
2024/02/19 13:59:13;;;;;;;;;;;;;;;;;;5057991;28;19913;-82
2024/02/19 14:01:40;;;;;;;;;;;;;;;;;;5040753;28;20002;-84
2024/02/19 14:04:06;;;;;;;;;;;;;;;;;;5031494;28;19913;-85
2024/02/19 14:06:32;;;;;;;;;;;;;;;;;;5029791;28;20551;-83
2024/02/19 14:08:58;;;;;;;;;;;;;;;;;;5053351;28;19920;-88
2024/02/19 14:11:27;;;;;;;;;;;;;;;;;;5058274;28;19919;-83
2024/02/19 14:13:53;;;;;;;;;;;;;;;;;;5030849;28;19913;-84
2024/02/19 14:16:19;;;;;;;;;;;;;;;;;;5043488;28;19921;-84
2024/02/19 14:18:46;;;;;;;;;;;;;;;;;;5048233;28;19963;-83
2024/02/19 14:21:13;;;;;;;;;;;;;;;;;;5049481;28;19923;-84
2024/02/19 14:23:40;;;;;;;;;;;;;;;;;;5049650;28;19920;-83
2024/02/19 14:26:08;;;;;;;;;;;;;;;;;;5051942;28;19948;-84
2024/02/19 14:28:33;;;;;;;;;;;;;;;;;;5050746;28;19924;-84
2024/02/19 14:30:59;;;;;;;;;;;;;;;;;;5053298;28;19928;-82
2024/02/19 14:33:25;;;;;;;;;;;;;;;;;;5028089;28;19999;-80
2024/02/19 14:35:51;;;;;;;;;;;;;;;;;;5058334;28;19955;-84
2024/02/19 14:38:17;;;;;;;;;;;;;;;;;;5047232;28;19952;-83
2024/02/19 14:40:43;;;;;;;;;;;;;;;;;;5046278;28;20276;-83
2024/02/19 14:43:09;;;;;;;;;;;;;;;;;;5041882;28;19944;-82
2024/02/19 14:45:35;;;;;;;;;;;;;;;;;;5040659;28;19948;-82
2024/02/19 14:48:01;;;;;;;;;;;;;;;;;;5042227;28;20007;-81
2024/02/19 14:50:27;;;;;;;;;;;;;;;;;;5048574;28;20625;-84
2024/02/19 14:52:53;;;;;;;;;;;;;;;;;;5033984;28;19912;-88
2024/02/19 14:55:19;;;;;;;;;;;;;;;;;;5049850;28;20086;-85
2024/02/19 14:57:45;;;;;;;;;;;;;;;;;;5049177;28;19971;-83
2024/02/19 15:00:11;;;;;;;;;;;;;;;;;;5053548;28;20375;-81
2024/02/19 15:02:37;;;;;;;;;;;;;;;;;;5041433;28;19919;-84
2024/02/19 15:05:03;;;;;;;;;;;;;;;;;;5049311;28;19917;-81
2024/02/19 15:07:30;;;;;;;;;;;;;;;;;;5047414;28;19913;-86
2024/02/19 15:09:55;;;;;;;;;;;;;;;;;;5045007;28;19936;-85
2024/02/19 15:12:21;;;;;;;;;;;;;;;;;;5047995;28;20376;-84
2024/02/19 15:14:47;;;;;;;;;;;;;;;;;;5049575;28;19935;-84
2024/02/19 15:17:15;;;;;;;;;;;;;;;;;;5048013;28;19913;-84
2024/02/19 15:19:41;;;;;;;;;;;;;;;;;;5062761;28;19951;-85
2024/02/19 15:22:07;;;;;;;;;;;;;;;;;;5044528;28;20411;-84
2024/02/19 15:24:42;;;;;;;;;;;;;;;;;;5038440;28;19919;-83
2024/02/19 15:27:09;;;;;;;;;;;;;;;;;;5047190;28;19921;-84
2024/02/19 15:29:35;;;;;;;;;;;;;;;;;;5051372;28;19971;-84
2024/02/19 15:32:01;;;;;;;;;;;;;;;;;;5020714;28;19913;-86
2024/02/19 15:34:27;;;;;;;;;;;;;;;;;;5028106;28;19948;-85
2024/02/19 15:36:53;;;;;;;;;;;;;;;;;;5049320;28;19917;-85
2024/02/19 15:39:18;;;;;;;;;;;;;;;;;;5034299;28;19913;-86
2024/02/19 15:41:44;;;;;;;;;;;;;;;;;;5044927;28;19957;-86
2024/02/19 15:44:10;;;;;;;;;;;;;;;;;;5020752;28;19921;-82
2024/02/19 15:46:36;;;;;;;;;;;;;;;;;;5028803;28;19921;-83
2024/02/19 15:49:09;;;;;;;;;;;;;;;;;;5047976;28;19917;-86
2024/02/19 15:51:36;;;;;;;;;;;;;;;;;;5049657;28;20035;-85
2024/02/19 15:54:02;;;;;;;;;;;;;;;;;;5047864;28;19912;-83
2024/02/19 15:56:29;;;;;;;;;;;;;;;;;;5048909;28;19913;-84
2024/02/19 15:58:54;;;;;;;;;;;;;;;;;;5040883;28;19913;-82
2024/02/19 16:01:20;;;;;;;;;;;;;;;;;;5047260;28;19920;-83
2024/02/19 16:03:49;;;;;;;;;;;;;;;;;;5050333;28;19939;-85
2024/02/19 16:06:15;;;;;;;;;;;;;;;;;;5034824;28;19909;-82
2024/02/19 16:08:41;;;;;;;;;;;;;;;;;;5047035;28;22128;-82
2024/02/19 16:11:08;;;;;;;;;;;;;;;;;;5047829;28;19944;-83
2024/02/19 16:13:33;;;;;;;;;;;;;;;;;;5047060;28;19912;-83
2024/02/19 16:15:59;;;;;;;;;;;;;;;;;;5052245;28;20382;-82
2024/02/19 16:18:25;;;;;;;;;;;;;;;;;;5036245;28;19913;-84
2024/02/19 16:20:52;;;;;;;;;;;;;;;;;;5047483;28;19963;-84
2024/02/19 16:23:18;;;;;;;;;;;;;;;;;;5047130;28;19916;-85
2024/02/19 16:25:43;;;;;;;;;;;;;;;;;;5054154;28;19912;-83
2024/02/19 16:28:09;;;;;;;;;;;;;;;;;;5050740;28;20015;-85
2024/02/19 16:30:35;;;;;;;;;;;;;;;;;;5053912;28;19921;-84
2024/02/19 16:33:01;;;;;;;;;;;;;;;;;;5045329;28;19916;-84
2024/02/19 16:35:27;;;;;;;;;;;;;;;;;;5045610;28;19962;-81
2024/02/19 16:37:53;;;;;;;;;;;;;;;;;;5053919;28;20031;-81